Kennedy — PB7633 — position and weather

sailwx.info

Track history (hours):
 
Tides and Currents Weather Stations Pressure Air Temp Water Temp Dewpoint Dewpoint Depression Visibility Wind Speed Wind Dir Waves Ship Positions

Kennedy

Last reported at 2017-Apr-28 17:56 UTC. Time now 2017-May-27 09:44 UTC.
Position N 39°11' E 003°12'.
Warning: this ship's position is 28 days out of date.

Length 15 m.

Type: Sailing vessel. MMSI: 245144000.

Date/timePositionNaut miles runAvg speedWind from/ knotsBaromVisibWave heightAir tempDewpointWater temp
2017-Apr-28 17:56N 39°11' E 003°12'6 5.6
2017-Apr-28 16:57N 39°14' E 003°06'3 5.5
2017-Apr-28 16:27N 39°15' E 003°03'1 0.4
2017-Apr-28 12:49N 39°17' E 003°02'2 3.8
2017-Apr-28 12:24N 39°16' E 003°00'3 6.3
2017-Apr-28 12:00N 39°17' E 002°57'3 5.5
2017-Apr-28 11:30N 39°18' E 002°54'3 7.0
2017-Apr-28 11:00N 39°20' E 002°50'3 5.9
2017-Apr-28 10:29N 39°21' E 002°47'3 6.0
2017-Apr-28 10:00N 39°23' E 002°44'4 7.2
2017-Apr-28 09:30N 39°26' E 002°42'4 7.3
2017-Apr-28 09:00N 39°30' E 002°40'3 6.9
2017-Apr-28 08:30N 39°33' E 002°38'1 1.7
2017-Apr-28 08:00N 39°34' E 002°38'0 0.0
2017-Apr-28 07:30N 39°34' E 002°38'0 0.0
2017-Apr-28 07:00N 39°34' E 002°38'0 0.0
2017-Apr-28 06:30N 39°34' E 002°38'0 0.0
2017-Apr-28 06:00N 39°34' E 002°38'0 0.0
2017-Apr-28 05:30N 39°34' E 002°38'0 0.0
2017-Apr-28 05:00N 39°34' E 002°38'0 0.0
2017-Apr-28 04:30N 39°34' E 002°38'0 0.0
2017-Apr-28 04:00N 39°34' E 002°38'0 0.0
2017-Apr-28 03:30N 39°34' E 002°38'0 0.0
2017-Apr-28 03:00N 39°34' E 002°38'0 0.0
2017-Apr-28 02:30N 39°34' E 002°38'0 0.0
2017-Apr-28 02:00N 39°34' E 002°38'0 0.0
2017-Apr-28 01:30N 39°34' E 002°38'0 0.0
2017-Apr-28 01:00N 39°34' E 002°38'0 0.0
2017-Apr-28 00:30N 39°34' E 002°38'0 0.0
2017-Apr-28 00:00N 39°34' E 002°38'0 0.0
2017-Apr-27 23:30N 39°34' E 002°38'0 0.0
2017-Apr-27 23:00N 39°34' E 002°38'0 0.0
2017-Apr-27 22:21N 39°34' E 002°38'0 0.0
2017-Apr-27 22:00N 39°34' E 002°38'0 0.0
2017-Apr-27 21:27N 39°34' E 002°38'0 0.0
2017-Apr-27 21:00N 39°34' E 002°38'0 0.0
2017-Apr-27 20:30N 39°34' E 002°38'0 0.0
2017-Apr-27 20:00N 39°34' E 002°38'0 0.0
2017-Apr-27 19:30N 39°34' E 002°38'0 0.0
2017-Apr-27 19:00N 39°34' E 002°38'0 0.0
2017-Apr-27 18:30N 39°34' E 002°38'0 0.0
2017-Apr-27 18:00N 39°34' E 002°38'0 0.0
2017-Apr-27 17:30N 39°34' E 002°38'0 0.0
2017-Apr-27 17:00N 39°34' E 002°38'0 0.0
2017-Apr-27 16:30N 39°34' E 002°38'0 0.0
2017-Apr-27 15:57N 39°34' E 002°38'0 0.0
2017-Apr-27 15:30N 39°34' E 002°38'0 0.0
2017-Apr-27 15:00N 39°34' E 002°38'0 0.0
2017-Apr-27 14:00N 39°34' E 002°38'0 0.0
2017-Apr-27 13:30N 39°34' E 002°38'0 0.0
2017-Apr-27 13:00N 39°34' E 002°38'0 0.0
2017-Apr-27 12:30N 39°34' E 002°38'0 0.0
2017-Apr-27 12:00N 39°34' E 002°38'0 0.0
2017-Apr-27 11:30N 39°34' E 002°38'0 0.0
2017-Apr-27 11:00N 39°34' E 002°38'0 0.0
2017-Apr-27 10:30N 39°34' E 002°38'0 0.0
2017-Apr-27 10:00N 39°34' E 002°38'0 0.0
2017-Apr-27 09:30N 39°34' E 002°38'0 0.0
2017-Apr-27 09:00N 39°34' E 002°38'0 0.0
2017-Apr-27 08:30N 39°34' E 002°38'0 0.0
2017-Apr-27 08:00N 39°34' E 002°38'0 0.0
2017-Apr-27 07:30N 39°34' E 002°38'0 0.0
2017-Apr-27 07:00N 39°34' E 002°38'0 0.0
2017-Apr-27 06:30N 39°34' E 002°38'0 0.0
2017-Apr-27 06:00N 39°34' E 002°38'0 0.0
2017-Apr-27 05:30N 39°34' E 002°38'0 0.0
2017-Apr-27 05:00N 39°34' E 002°38'0 0.0
2017-Apr-27 04:30N 39°34' E 002°38'0 0.0
2017-Apr-27 04:00N 39°34' E 002°38'0 0.0
2017-Apr-27 03:30N 39°34' E 002°38'0 0.0
2017-Apr-27 03:00N 39°34' E 002°38'0 0.0
2017-Apr-27 02:30N 39°34' E 002°38'0 0.0
2017-Apr-27 01:57N 39°34' E 002°38'0 0.0
2017-Apr-27 01:30N 39°34' E 002°38'0 0.0
2017-Apr-27 01:00N 39°34' E 002°38'0 0.0
2017-Apr-27 00:30N 39°34' E 002°38'0 0.0
2017-Apr-27 00:00N 39°34' E 002°38'0 0.0
2017-Apr-26 23:30N 39°34' E 002°38'0 0.0
2017-Apr-26 23:00N 39°34' E 002°38'0 0.0
2017-Apr-26 22:30N 39°34' E 002°38'0 0.0
2017-Apr-26 22:00N 39°34' E 002°38'0 0.0
2017-Apr-26 21:30N 39°34' E 002°38'0 0.0
2017-Apr-26 21:00N 39°34' E 002°38'0 0.0
2017-Apr-26 20:30N 39°34' E 002°38'0 0.0
2017-Apr-26 20:00N 39°34' E 002°38'0 0.0
2017-Apr-26 19:30N 39°34' E 002°38'0 0.0
2017-Apr-26 19:00N 39°34' E 002°38'0 0.0
2017-Apr-26 18:30N 39°34' E 002°38'0 0.0
2017-Apr-26 18:00N 39°34' E 002°38'0 0.0
2017-Apr-26 17:30N 39°34' E 002°38'0 0.0
2017-Apr-26 17:00N 39°34' E 002°38'0 0.0
2017-Apr-26 16:30N 39°34' E 002°38'0 0.0
2017-Apr-26 16:00N 39°34' E 002°38'0 0.0
2017-Apr-26 15:30N 39°34' E 002°38'0 0.0
2017-Apr-26 15:00N 39°34' E 002°38'0 0.0
2017-Apr-26 14:30N 39°34' E 002°38'0 0.0
2017-Apr-26 13:30N 39°34' E 002°38'0 0.0
2017-Apr-26 13:00N 39°34' E 002°38'0 0.5
2017-Apr-26 12:30N 39°33' E 002°38'2 3.5
2017-Apr-26 12:00N 39°32' E 002°37'3 6.8
2017-Apr-26 11:30N 39°29' E 002°34'3 6.8
2017-Apr-26 11:00N 39°27' E 002°31'3 6.5
2017-Apr-26 10:30N 39°24' E 002°28'3 6.1
2017-Apr-26 09:59N 39°23' E 002°25'3 6.3
2017-Apr-26 09:30N 39°21' E 002°21'3 6.5
2017-Apr-26 09:00N 39°20' E 002°17'3 6.5
2017-Apr-26 08:30N 39°19' E 002°14'3 6.5
2017-Apr-26 08:00N 39°17' E 002°10'3 6.6
2017-Apr-26 07:30N 39°16' E 002°06'3 6.3
2017-Apr-26 07:00N 39°15' E 002°02'3 5.9
2017-Apr-26 06:30N 39°14' E 001°59'3 6.9
2017-Apr-26 06:00N 39°12' E 001°55'3 6.9
2017-Apr-26 05:30N 39°10' E 001°51'4 7.6
2017-Apr-26 04:59N 39°09' E 001°46'4 8.0
2017-Apr-26 04:30N 39°07' E 001°42'5 2.6
2017-Apr-26 02:38N 39°05' E 001°36'0 0.1
2017-Apr-26 02:26N 39°05' E 001°36'  
Track history (hours):
 
Tides and Currents Weather Stations Pressure Air Temp Water Temp Dewpoint Dewpoint Depression Visibility Wind Speed Wind Dir Waves Ship Positions

Kennedy

Last reported at 2017-Apr-28 17:56 UTC. Time now 2017-May-27 09:44 UTC.
Position N 39°11' E 003°12'.
Warning: this ship's position is 28 days out of date.

Length 15 m.

Type: Sailing vessel. MMSI: 245144000.

Date/timePositionNaut miles runAvg speedWind from/ knotsBaromVisibWave heightAir tempDewpointWater temp
2017-Apr-28 17:56N 39°11' E 003°12'6 5.6
2017-Apr-28 16:57N 39°14' E 003°06'3 5.5
2017-Apr-28 16:27N 39°15' E 003°03'1 0.4
2017-Apr-28 12:49N 39°17' E 003°02'2 3.8
2017-Apr-28 12:24N 39°16' E 003°00'3 6.3
2017-Apr-28 12:00N 39°17' E 002°57'3 5.5
2017-Apr-28 11:30N 39°18' E 002°54'3 7.0
2017-Apr-28 11:00N 39°20' E 002°50'3 5.9
2017-Apr-28 10:29N 39°21' E 002°47'3 6.0
2017-Apr-28 10:00N 39°23' E 002°44'4 7.2
2017-Apr-28 09:30N 39°26' E 002°42'4 7.3
2017-Apr-28 09:00N 39°30' E 002°40'3 6.9
2017-Apr-28 08:30N 39°33' E 002°38'1 1.7
2017-Apr-28 08:00N 39°34' E 002°38'0 0.0
2017-Apr-28 07:30N 39°34' E 002°38'0 0.0
2017-Apr-28 07:00N 39°34' E 002°38'0 0.0
2017-Apr-28 06:30N 39°34' E 002°38'0 0.0
2017-Apr-28 06:00N 39°34' E 002°38'0 0.0
2017-Apr-28 05:30N 39°34' E 002°38'0 0.0
2017-Apr-28 05:00N 39°34' E 002°38'0 0.0
2017-Apr-28 04:30N 39°34' E 002°38'0 0.0
2017-Apr-28 04:00N 39°34' E 002°38'0 0.0
2017-Apr-28 03:30N 39°34' E 002°38'0 0.0
2017-Apr-28 03:00N 39°34' E 002°38'0 0.0
2017-Apr-28 02:30N 39°34' E 002°38'0 0.0
2017-Apr-28 02:00N 39°34' E 002°38'0 0.0
2017-Apr-28 01:30N 39°34' E 002°38'0 0.0
2017-Apr-28 01:00N 39°34' E 002°38'0 0.0
2017-Apr-28 00:30N 39°34' E 002°38'0 0.0
2017-Apr-28 00:00N 39°34' E 002°38'0 0.0
2017-Apr-27 23:30N 39°34' E 002°38'0 0.0
2017-Apr-27 23:00N 39°34' E 002°38'0 0.0
2017-Apr-27 22:21N 39°34' E 002°38'0 0.0
2017-Apr-27 22:00N 39°34' E 002°38'0 0.0
2017-Apr-27 21:27N 39°34' E 002°38'0 0.0
2017-Apr-27 21:00N 39°34' E 002°38'0 0.0
2017-Apr-27 20:30N 39°34' E 002°38'0 0.0
2017-Apr-27 20:00N 39°34' E 002°38'0 0.0
2017-Apr-27 19:30N 39°34' E 002°38'0 0.0
2017-Apr-27 19:00N 39°34' E 002°38'0 0.0
2017-Apr-27 18:30N 39°34' E 002°38'0 0.0
2017-Apr-27 18:00N 39°34' E 002°38'0 0.0
2017-Apr-27 17:30N 39°34' E 002°38'0 0.0
2017-Apr-27 17:00N 39°34' E 002°38'0 0.0
2017-Apr-27 16:30N 39°34' E 002°38'0 0.0
2017-Apr-27 15:57N 39°34' E 002°38'0 0.0
2017-Apr-27 15:30N 39°34' E 002°38'0 0.0
2017-Apr-27 15:00N 39°34' E 002°38'0 0.0
2017-Apr-27 14:00N 39°34' E 002°38'0 0.0
2017-Apr-27 13:30N 39°34' E 002°38'0 0.0
2017-Apr-27 13:00N 39°34' E 002°38'0 0.0
2017-Apr-27 12:30N 39°34' E 002°38'0 0.0
2017-Apr-27 12:00N 39°34' E 002°38'0 0.0
2017-Apr-27 11:30N 39°34' E 002°38'0 0.0
2017-Apr-27 11:00N 39°34' E 002°38'0 0.0
2017-Apr-27 10:30N 39°34' E 002°38'0 0.0
2017-Apr-27 10:00N 39°34' E 002°38'0 0.0
2017-Apr-27 09:30N 39°34' E 002°38'0 0.0
2017-Apr-27 09:00N 39°34' E 002°38'0 0.0
2017-Apr-27 08:30N 39°34' E 002°38'0 0.0
2017-Apr-27 08:00N 39°34' E 002°38'0 0.0
2017-Apr-27 07:30N 39°34' E 002°38'0 0.0
2017-Apr-27 07:00N 39°34' E 002°38'0 0.0
2017-Apr-27 06:30N 39°34' E 002°38'0 0.0
2017-Apr-27 06:00N 39°34' E 002°38'0 0.0
2017-Apr-27 05:30N 39°34' E 002°38'0 0.0
2017-Apr-27 05:00N 39°34' E 002°38'0 0.0
2017-Apr-27 04:30N 39°34' E 002°38'0 0.0
2017-Apr-27 04:00N 39°34' E 002°38'0 0.0
2017-Apr-27 03:30N 39°34' E 002°38'0 0.0
2017-Apr-27 03:00N 39°34' E 002°38'0 0.0
2017-Apr-27 02:30N 39°34' E 002°38'0 0.0
2017-Apr-27 01:57N 39°34' E 002°38'0 0.0
2017-Apr-27 01:30N 39°34' E 002°38'0 0.0
2017-Apr-27 01:00N 39°34' E 002°38'0 0.0
2017-Apr-27 00:30N 39°34' E 002°38'0 0.0
2017-Apr-27 00:00N 39°34' E 002°38'0 0.0
2017-Apr-26 23:30N 39°34' E 002°38'0 0.0
2017-Apr-26 23:00N 39°34' E 002°38'0 0.0
2017-Apr-26 22:30N 39°34' E 002°38'0 0.0
2017-Apr-26 22:00N 39°34' E 002°38'0 0.0
2017-Apr-26 21:30N 39°34' E 002°38'0 0.0
2017-Apr-26 21:00N 39°34' E 002°38'0 0.0
2017-Apr-26 20:30N 39°34' E 002°38'0 0.0
2017-Apr-26 20:00N 39°34' E 002°38'0 0.0
2017-Apr-26 19:30N 39°34' E 002°38'0 0.0
2017-Apr-26 19:00N 39°34' E 002°38'0 0.0
2017-Apr-26 18:30N 39°34' E 002°38'0 0.0
2017-Apr-26 18:00N 39°34' E 002°38'0 0.0
2017-Apr-26 17:30N 39°34' E 002°38'0 0.0
2017-Apr-26 17:00N 39°34' E 002°38'0 0.0
2017-Apr-26 16:30N 39°34' E 002°38'0 0.0
2017-Apr-26 16:00N 39°34' E 002°38'0 0.0
2017-Apr-26 15:30N 39°34' E 002°38'0 0.0
2017-Apr-26 15:00N 39°34' E 002°38'0 0.0
2017-Apr-26 14:30N 39°34' E 002°38'0 0.0
2017-Apr-26 13:30N 39°34' E 002°38'0 0.0
2017-Apr-26 13:00N 39°34' E 002°38'0 0.5
2017-Apr-26 12:30N 39°33' E 002°38'2 3.5
2017-Apr-26 12:00N 39°32' E 002°37'3 6.8
2017-Apr-26 11:30N 39°29' E 002°34'3 6.8
2017-Apr-26 11:00N 39°27' E 002°31'3 6.5
2017-Apr-26 10:30N 39°24' E 002°28'3 6.1
2017-Apr-26 09:59N 39°23' E 002°25'3 6.3
2017-Apr-26 09:30N 39°21' E 002°21'3 6.5
2017-Apr-26 09:00N 39°20' E 002°17'3 6.5
2017-Apr-26 08:30N 39°19' E 002°14'3 6.5
2017-Apr-26 08:00N 39°17' E 002°10'3 6.6
2017-Apr-26 07:30N 39°16' E 002°06'3 6.3
2017-Apr-26 07:00N 39°15' E 002°02'3 5.9
2017-Apr-26 06:30N 39°14' E 001°59'3 6.9
2017-Apr-26 06:00N 39°12' E 001°55'3 6.9
2017-Apr-26 05:30N 39°10' E 001°51'4 7.6
2017-Apr-26 04:59N 39°09' E 001°46'4 8.0
2017-Apr-26 04:30N 39°07' E 001°42'5 2.6
2017-Apr-26 02:38N 39°05' E 001°36'0 0.1
2017-Apr-26 02:26N 39°05' E 001°36'  

Dump ship's entire track history